sensor_id;sensor_type;location;lat;lon;timestamp;P1;durP1;ratioP1;P2;durP2;ratioP2
52188;SDS011;38162;45.926;13.608;2022-12-07T00:00:53;6.63;;;4.73;;
52188;SDS011;38162;45.926;13.608;2022-12-07T00:03:20;7.77;;;4.87;;
52188;SDS011;38162;45.926;13.608;2022-12-07T00:05:45;7.27;;;4.23;;
52188;SDS011;38162;45.926;13.608;2022-12-07T00:08:11;6.50;;;4.40;;
52188;SDS011;38162;45.926;13.608;2022-12-07T00:10:37;8.07;;;4.57;;
52188;SDS011;38162;45.926;13.608;2022-12-07T00:13:02;6.30;;;4.50;;
52188;SDS011;38162;45.926;13.608;2022-12-07T00:15:28;5.83;;;4.13;;
52188;SDS011;38162;45.926;13.608;2022-12-07T00:17:53;6.43;;;4.37;;
52188;SDS011;38162;45.926;13.608;2022-12-07T00:20:19;6.27;;;4.17;;
52188;SDS011;38162;45.926;13.608;2022-12-07T00:22:45;8.27;;;4.20;;
52188;SDS011;38162;45.926;13.608;2022-12-07T00:25:10;5.37;;;3.87;;
52188;SDS011;38162;45.926;13.608;2022-12-07T00:27:36;6.63;;;4.23;;
52188;SDS011;38162;45.926;13.608;2022-12-07T00:30:02;6.40;;;4.47;;
52188;SDS011;38162;45.926;13.608;2022-12-07T00:32:28;6.83;;;3.97;;
52188;SDS011;38162;45.926;13.608;2022-12-07T00:34:53;7.30;;;4.50;;
52188;SDS011;38162;45.926;13.608;2022-12-07T00:37:19;5.17;;;3.90;;
52188;SDS011;38162;45.926;13.608;2022-12-07T00:39:45;5.83;;;3.77;;
52188;SDS011;38162;45.926;13.608;2022-12-07T00:42:11;5.93;;;3.40;;
52188;SDS011;38162;45.926;13.608;2022-12-07T00:44:37;8.40;;;4.20;;
52188;SDS011;38162;45.926;13.608;2022-12-07T00:47:02;5.20;;;3.80;;
52188;SDS011;38162;45.926;13.608;2022-12-07T00:49:28;5.80;;;3.93;;
52188;SDS011;38162;45.926;13.608;2022-12-07T00:51:54;7.10;;;3.60;;
52188;SDS011;38162;45.926;13.608;2022-12-07T00:54:19;6.37;;;3.50;;
52188;SDS011;38162;45.926;13.608;2022-12-07T00:56:45;6.90;;;4.13;;
52188;SDS011;38162;45.926;13.608;2022-12-07T00:59:12;6.30;;;4.00;;
52188;SDS011;38162;45.926;13.608;2022-12-07T01:01:41;9.30;;;4.97;;
52188;SDS011;38162;45.926;13.608;2022-12-07T01:04:06;5.27;;;3.83;;
52188;SDS011;38162;45.926;13.608;2022-12-07T01:06:32;6.30;;;4.47;;
52188;SDS011;38162;45.926;13.608;2022-12-07T01:08:58;8.17;;;4.37;;
52188;SDS011;38162;45.926;13.608;2022-12-07T01:11:26;7.77;;;4.47;;
52188;SDS011;38162;45.926;13.608;2022-12-07T01:13:54;7.03;;;4.40;;
52188;SDS011;38162;45.926;13.608;2022-12-07T01:16:21;5.20;;;3.63;;
52188;SDS011;38162;45.926;13.608;2022-12-07T01:18:49;5.57;;;4.00;;
52188;SDS011;38162;45.926;13.608;2022-12-07T01:21:18;9.33;;;4.47;;
52188;SDS011;38162;45.926;13.608;2022-12-07T01:23:46;6.10;;;4.47;;
52188;SDS011;38162;45.926;13.608;2022-12-07T01:26:13;7.10;;;3.97;;
52188;SDS011;38162;45.926;13.608;2022-12-07T01:28:40;8.20;;;4.63;;
52188;SDS011;38162;45.926;13.608;2022-12-07T01:31:07;6.40;;;4.20;;
52188;SDS011;38162;45.926;13.608;2022-12-07T01:33:39;4.80;;;3.63;;
52188;SDS011;38162;45.926;13.608;2022-12-07T01:38:41;5.73;;;3.97;;
52188;SDS011;38162;45.926;13.608;2022-12-07T01:41:07;5.30;;;3.67;;
52188;SDS011;38162;45.926;13.608;2022-12-07T01:43:33;6.90;;;4.37;;
52188;SDS011;38162;45.926;13.608;2022-12-07T01:46:00;6.17;;;4.10;;
52188;SDS011;38162;45.926;13.608;2022-12-07T01:48:38;9.00;;;4.70;;
52188;SDS011;38162;45.926;13.608;2022-12-07T01:51:09;6.80;;;4.03;;
52188;SDS011;38162;45.926;13.608;2022-12-07T01:53:38;6.27;;;3.57;;
52188;SDS011;38162;45.926;13.608;2022-12-07T01:56:07;6.33;;;3.90;;
52188;SDS011;38162;45.926;13.608;2022-12-07T01:58:35;5.53;;;4.00;;
52188;SDS011;38162;45.926;13.608;2022-12-07T02:01:02;5.93;;;4.40;;
52188;SDS011;38162;45.926;13.608;2022-12-07T02:03:41;5.37;;;3.83;;
52188;SDS011;38162;45.926;13.608;2022-12-07T02:06:08;7.27;;;3.50;;
52188;SDS011;38162;45.926;13.608;2022-12-07T02:08:38;11.07;;;3.83;;
52188;SDS011;38162;45.926;13.608;2022-12-07T02:11:05;5.97;;;3.90;;
52188;SDS011;38162;45.926;13.608;2022-12-07T02:13:33;8.47;;;4.27;;
52188;SDS011;38162;45.926;13.608;2022-12-07T02:18:48;4.10;;;3.30;;
52188;SDS011;38162;45.926;13.608;2022-12-07T02:26:55;6.67;;;4.13;;
52188;SDS011;38162;45.926;13.608;2022-12-07T02:29:30;4.40;;;3.43;;
52188;SDS011;38162;45.926;13.608;2022-12-07T02:32:59;6.13;;;3.97;;
52188;SDS011;38162;45.926;13.608;2022-12-07T02:35:22;6.00;;;3.73;;
52188;SDS011;38162;45.926;13.608;2022-12-07T02:38:01;4.60;;;3.63;;
52188;SDS011;38162;45.926;13.608;2022-12-07T02:41:07;7.07;;;3.63;;
52188;SDS011;38162;45.926;13.608;2022-12-07T02:43:42;5.05;;;3.33;;
52188;SDS011;38162;45.926;13.608;2022-12-07T02:46:13;4.87;;;3.53;;
52188;SDS011;38162;45.926;13.608;2022-12-07T02:48:42;5.23;;;4.00;;
52188;SDS011;38162;45.926;13.608;2022-12-07T02:51:09;4.30;;;3.30;;
52188;SDS011;38162;45.926;13.608;2022-12-07T03:04:46;4.07;;;3.27;;
52188;SDS011;38162;45.926;13.608;2022-12-07T03:07:24;4.67;;;3.60;;
52188;SDS011;38162;45.926;13.608;2022-12-07T03:10:12;8.97;;;3.13;;
52188;SDS011;38162;45.926;13.608;2022-12-07T03:15:38;4.73;;;3.43;;
52188;SDS011;38162;45.926;13.608;2022-12-07T03:18:13;8.37;;;3.50;;
52188;SDS011;38162;45.926;13.608;2022-12-07T03:20:42;3.27;;;2.73;;
52188;SDS011;38162;45.926;13.608;2022-12-07T03:23:10;6.00;;;3.30;;
52188;SDS011;38162;45.926;13.608;2022-12-07T03:25:40;6.27;;;3.00;;
52188;SDS011;38162;45.926;13.608;2022-12-07T03:28:10;4.43;;;3.23;;
52188;SDS011;38162;45.926;13.608;2022-12-07T03:30:49;5.47;;;3.30;;
52188;SDS011;38162;45.926;13.608;2022-12-07T03:33:22;6.77;;;3.10;;
52188;SDS011;38162;45.926;13.608;2022-12-07T03:38:28;3.75;;;3.00;;
52188;SDS011;38162;45.926;13.608;2022-12-07T03:41:05;4.57;;;3.10;;
52188;SDS011;38162;45.926;13.608;2022-12-07T03:43:39;3.87;;;3.23;;
52188;SDS011;38162;45.926;13.608;2022-12-07T03:48:51;4.70;;;3.10;;
52188;SDS011;38162;45.926;13.608;2022-12-07T03:56:33;4.47;;;3.10;;
52188;SDS011;38162;45.926;13.608;2022-12-07T03:58:59;4.57;;;3.00;;
52188;SDS011;38162;45.926;13.608;2022-12-07T04:01:25;4.93;;;3.03;;
52188;SDS011;38162;45.926;13.608;2022-12-07T04:03:51;7.77;;;4.40;;
52188;SDS011;38162;45.926;13.608;2022-12-07T04:06:17;5.97;;;3.30;;
52188;SDS011;38162;45.926;13.608;2022-12-07T04:08:42;7.00;;;3.63;;
52188;SDS011;38162;45.926;13.608;2022-12-07T04:11:08;4.40;;;3.40;;
52188;SDS011;38162;45.926;13.608;2022-12-07T04:13:34;5.67;;;3.90;;
52188;SDS011;38162;45.926;13.608;2022-12-07T04:16:19;3.90;;;3.10;;
52188;SDS011;38162;45.926;13.608;2022-12-07T04:18:45;5.60;;;3.27;;
52188;SDS011;38162;45.926;13.608;2022-12-07T04:21:11;20.17;;;13.37;;
52188;SDS011;38162;45.926;13.608;2022-12-07T04:23:37;22.50;;;17.47;;
52188;SDS011;38162;45.926;13.608;2022-12-07T04:26:02;68.40;;;59.80;;
52188;SDS011;38162;45.926;13.608;2022-12-07T04:28:28;83.00;;;74.10;;
52188;SDS011;38162;45.926;13.608;2022-12-07T04:30:54;25.83;;;23.17;;
52188;SDS011;38162;45.926;13.608;2022-12-07T04:33:19;10.47;;;5.27;;
52188;SDS011;38162;45.926;13.608;2022-12-07T04:35:45;5.80;;;4.17;;
52188;SDS011;38162;45.926;13.608;2022-12-07T04:38:11;12.37;;;7.80;;
52188;SDS011;38162;45.926;13.608;2022-12-07T04:40:36;5.80;;;3.73;;
52188;SDS011;38162;45.926;13.608;2022-12-07T04:43:02;4.90;;;3.90;;
52188;SDS011;38162;45.926;13.608;2022-12-07T04:45:27;6.37;;;4.10;;
52188;SDS011;38162;45.926;13.608;2022-12-07T04:47:53;4.83;;;3.30;;
52188;SDS011;38162;45.926;13.608;2022-12-07T04:50:19;6.20;;;3.47;;
52188;SDS011;38162;45.926;13.608;2022-12-07T04:52:44;4.33;;;3.17;;
52188;SDS011;38162;45.926;13.608;2022-12-07T04:55:10;4.27;;;3.40;;
52188;SDS011;38162;45.926;13.608;2022-12-07T04:57:36;6.97;;;4.87;;
52188;SDS011;38162;45.926;13.608;2022-12-07T05:00:01;8.63;;;5.80;;
52188;SDS011;38162;45.926;13.608;2022-12-07T05:02:28;4.73;;;3.33;;
52188;SDS011;38162;45.926;13.608;2022-12-07T05:04:53;3.83;;;3.10;;
52188;SDS011;38162;45.926;13.608;2022-12-07T05:07:19;6.03;;;2.97;;
52188;SDS011;38162;45.926;13.608;2022-12-07T05:09:44;4.20;;;3.30;;
52188;SDS011;38162;45.926;13.608;2022-12-07T05:12:10;4.33;;;3.07;;
52188;SDS011;38162;45.926;13.608;2022-12-07T05:14:36;4.37;;;3.30;;
52188;SDS011;38162;45.926;13.608;2022-12-07T05:17:01;5.20;;;2.57;;
52188;SDS011;38162;45.926;13.608;2022-12-07T05:19:27;6.73;;;3.03;;
52188;SDS011;38162;45.926;13.608;2022-12-07T05:21:53;3.77;;;2.57;;
52188;SDS011;38162;45.926;13.608;2022-12-07T05:24:18;4.13;;;3.13;;
52188;SDS011;38162;45.926;13.608;2022-12-07T05:26:44;4.80;;;3.00;;
52188;SDS011;38162;45.926;13.608;2022-12-07T05:29:11;3.70;;;2.93;;
52188;SDS011;38162;45.926;13.608;2022-12-07T05:31:38;3.97;;;2.53;;
52188;SDS011;38162;45.926;13.608;2022-12-07T05:34:04;4.17;;;3.00;;
52188;SDS011;38162;45.926;13.608;2022-12-07T05:36:30;6.10;;;3.17;;
52188;SDS011;38162;45.926;13.608;2022-12-07T05:38:56;5.03;;;3.03;;
52188;SDS011;38162;45.926;13.608;2022-12-07T05:41:22;3.97;;;2.97;;
52188;SDS011;38162;45.926;13.608;2022-12-07T05:44:06;5.43;;;3.27;;
52188;SDS011;38162;45.926;13.608;2022-12-07T05:46:33;3.47;;;2.77;;
52188;SDS011;38162;45.926;13.608;2022-12-07T05:48:58;4.40;;;3.07;;
52188;SDS011;38162;45.926;13.608;2022-12-07T05:51:24;5.07;;;2.90;;
52188;SDS011;38162;45.926;13.608;2022-12-07T05:53:50;4.67;;;2.87;;
52188;SDS011;38162;45.926;13.608;2022-12-07T05:56:16;5.80;;;2.63;;
52188;SDS011;38162;45.926;13.608;2022-12-07T05:58:41;3.73;;;2.70;;
52188;SDS011;38162;45.926;13.608;2022-12-07T06:01:26;4.63;;;2.93;;
52188;SDS011;38162;45.926;13.608;2022-12-07T06:03:52;6.03;;;3.07;;
52188;SDS011;38162;45.926;13.608;2022-12-07T06:06:17;3.27;;;2.67;;
52188;SDS011;38162;45.926;13.608;2022-12-07T06:08:43;3.97;;;2.33;;
52188;SDS011;38162;45.926;13.608;2022-12-07T06:11:09;5.87;;;2.70;;
52188;SDS011;38162;45.926;13.608;2022-12-07T06:13:53;4.63;;;2.40;;
52188;SDS011;38162;45.926;13.608;2022-12-07T06:16:19;3.93;;;2.30;;
52188;SDS011;38162;45.926;13.608;2022-12-07T06:18:44;5.23;;;2.30;;
52188;SDS011;38162;45.926;13.608;2022-12-07T06:21:10;4.40;;;2.77;;
52188;SDS011;38162;45.926;13.608;2022-12-07T06:23:36;3.70;;;2.67;;
52188;SDS011;38162;45.926;13.608;2022-12-07T06:26:01;4.90;;;2.53;;
52188;SDS011;38162;45.926;13.608;2022-12-07T06:28:27;5.80;;;2.50;;
52188;SDS011;38162;45.926;13.608;2022-12-07T06:30:59;3.67;;;2.37;;
52188;SDS011;38162;45.926;13.608;2022-12-07T06:33:26;4.73;;;2.70;;
52188;SDS011;38162;45.926;13.608;2022-12-07T06:35:52;4.10;;;2.40;;
52188;SDS011;38162;45.926;13.608;2022-12-07T06:38:18;7.17;;;3.27;;
52188;SDS011;38162;45.926;13.608;2022-12-07T06:40:44;5.03;;;3.30;;
52188;SDS011;38162;45.926;13.608;2022-12-07T06:43:09;6.37;;;3.30;;
52188;SDS011;38162;45.926;13.608;2022-12-07T06:45:35;5.10;;;3.20;;
52188;SDS011;38162;45.926;13.608;2022-12-07T06:48:00;7.37;;;3.50;;
52188;SDS011;38162;45.926;13.608;2022-12-07T06:50:26;7.17;;;3.77;;
52188;SDS011;38162;45.926;13.608;2022-12-07T06:52:52;4.90;;;3.57;;
52188;SDS011;38162;45.926;13.608;2022-12-07T06:55:18;4.73;;;3.07;;
52188;SDS011;38162;45.926;13.608;2022-12-07T06:57:44;4.50;;;3.47;;
52188;SDS011;38162;45.926;13.608;2022-12-07T07:00:09;5.77;;;2.90;;
52188;SDS011;38162;45.926;13.608;2022-12-07T07:02:36;5.23;;;3.10;;
52188;SDS011;38162;45.926;13.608;2022-12-07T07:05:02;4.40;;;3.00;;
52188;SDS011;38162;45.926;13.608;2022-12-07T07:07:28;6.10;;;3.30;;
52188;SDS011;38162;45.926;13.608;2022-12-07T07:09:53;5.47;;;3.10;;
52188;SDS011;38162;45.926;13.608;2022-12-07T07:12:19;5.93;;;2.83;;
52188;SDS011;38162;45.926;13.608;2022-12-07T07:14:45;4.57;;;2.97;;
52188;SDS011;38162;45.926;13.608;2022-12-07T07:17:10;3.93;;;2.70;;
52188;SDS011;38162;45.926;13.608;2022-12-07T07:19:36;3.67;;;2.57;;
52188;SDS011;38162;45.926;13.608;2022-12-07T07:22:03;5.33;;;2.90;;
52188;SDS011;38162;45.926;13.608;2022-12-07T07:24:29;5.10;;;2.90;;
52188;SDS011;38162;45.926;13.608;2022-12-07T07:26:55;12.87;;;8.60;;
52188;SDS011;38162;45.926;13.608;2022-12-07T07:29:21;16.57;;;12.03;;
52188;SDS011;38162;45.926;13.608;2022-12-07T07:31:46;11.93;;;8.80;;
52188;SDS011;38162;45.926;13.608;2022-12-07T07:34:12;8.20;;;5.53;;
52188;SDS011;38162;45.926;13.608;2022-12-07T07:36:38;8.23;;;6.00;;
52188;SDS011;38162;45.926;13.608;2022-12-07T07:39:03;6.27;;;4.40;;
52188;SDS011;38162;45.926;13.608;2022-12-07T07:41:29;7.83;;;4.43;;
52188;SDS011;38162;45.926;13.608;2022-12-07T07:43:55;6.13;;;3.93;;
52188;SDS011;38162;45.926;13.608;2022-12-07T07:46:21;16.33;;;4.50;;
52188;SDS011;38162;45.926;13.608;2022-12-07T07:48:47;6.67;;;4.07;;
52188;SDS011;38162;45.926;13.608;2022-12-07T07:51:12;10.17;;;4.33;;
52188;SDS011;38162;45.926;13.608;2022-12-07T07:53:38;6.70;;;4.67;;
52188;SDS011;38162;45.926;13.608;2022-12-07T07:56:04;6.90;;;4.90;;
52188;SDS011;38162;45.926;13.608;2022-12-07T07:58:29;7.43;;;4.07;;
52188;SDS011;38162;45.926;13.608;2022-12-07T08:00:55;4.73;;;3.47;;
52188;SDS011;38162;45.926;13.608;2022-12-07T08:03:21;5.83;;;3.97;;
52188;SDS011;38162;45.926;13.608;2022-12-07T08:05:46;5.33;;;3.57;;
52188;SDS011;38162;45.926;13.608;2022-12-07T08:08:12;4.77;;;3.10;;
52188;SDS011;38162;45.926;13.608;2022-12-07T08:10:38;8.13;;;3.83;;
52188;SDS011;38162;45.926;13.608;2022-12-07T08:13:04;5.40;;;3.80;;
52188;SDS011;38162;45.926;13.608;2022-12-07T08:15:36;6.07;;;3.73;;
52188;SDS011;38162;45.926;13.608;2022-12-07T08:18:03;4.97;;;3.67;;
52188;SDS011;38162;45.926;13.608;2022-12-07T08:20:29;4.20;;;3.10;;
52188;SDS011;38162;45.926;13.608;2022-12-07T08:22:57;4.60;;;3.30;;
52188;SDS011;38162;45.926;13.608;2022-12-07T08:25:22;5.03;;;3.37;;
52188;SDS011;38162;45.926;13.608;2022-12-07T08:27:48;4.60;;;3.20;;
52188;SDS011;38162;45.926;13.608;2022-12-07T08:30:15;4.87;;;3.17;;
52188;SDS011;38162;45.926;13.608;2022-12-07T08:32:41;3.77;;;2.80;;
52188;SDS011;38162;45.926;13.608;2022-12-07T08:35:09;3.80;;;2.57;;
52188;SDS011;38162;45.926;13.608;2022-12-07T08:37:34;4.30;;;2.50;;
52188;SDS011;38162;45.926;13.608;2022-12-07T08:40:00;6.40;;;2.93;;
52188;SDS011;38162;45.926;13.608;2022-12-07T08:42:26;5.73;;;2.87;;
52188;SDS011;38162;45.926;13.608;2022-12-07T08:44:55;3.87;;;2.40;;
52188;SDS011;38162;45.926;13.608;2022-12-07T08:47:22;3.97;;;2.90;;
52188;SDS011;38162;45.926;13.608;2022-12-07T08:49:49;4.37;;;2.90;;
52188;SDS011;38162;45.926;13.608;2022-12-07T08:52:16;5.77;;;3.17;;
52188;SDS011;38162;45.926;13.608;2022-12-07T08:54:43;4.13;;;2.80;;
52188;SDS011;38162;45.926;13.608;2022-12-07T08:57:09;5.73;;;2.30;;
52188;SDS011;38162;45.926;13.608;2022-12-07T08:59:36;6.37;;;2.80;;
52188;SDS011;38162;45.926;13.608;2022-12-07T09:02:03;4.77;;;2.70;;
52188;SDS011;38162;45.926;13.608;2022-12-07T09:04:30;4.23;;;2.40;;
52188;SDS011;38162;45.926;13.608;2022-12-07T09:06:56;2.40;;;1.80;;
52188;SDS011;38162;45.926;13.608;2022-12-07T09:09:22;2.47;;;1.80;;
52188;SDS011;38162;45.926;13.608;2022-12-07T09:11:48;3.30;;;2.00;;
52188;SDS011;38162;45.926;13.608;2022-12-07T09:14:13;2.07;;;1.50;;
52188;SDS011;38162;45.926;13.608;2022-12-07T09:16:39;2.33;;;1.57;;
52188;SDS011;38162;45.926;13.608;2022-12-07T09:19:05;1.97;;;1.50;;
52188;SDS011;38162;45.926;13.608;2022-12-07T09:21:32;2.40;;;1.50;;
52188;SDS011;38162;45.926;13.608;2022-12-07T09:23:58;3.00;;;1.87;;
52188;SDS011;38162;45.926;13.608;2022-12-07T09:26:23;4.63;;;1.83;;
52188;SDS011;38162;45.926;13.608;2022-12-07T09:28:49;4.03;;;2.10;;
52188;SDS011;38162;45.926;13.608;2022-12-07T09:31:15;9.73;;;2.93;;
52188;SDS011;38162;45.926;13.608;2022-12-07T09:33:41;3.57;;;1.77;;
52188;SDS011;38162;45.926;13.608;2022-12-07T09:36:06;2.87;;;2.00;;
52188;SDS011;38162;45.926;13.608;2022-12-07T09:38:32;3.40;;;2.10;;
52188;SDS011;38162;45.926;13.608;2022-12-07T09:40:58;3.23;;;1.93;;
52188;SDS011;38162;45.926;13.608;2022-12-07T09:43:30;4.90;;;2.10;;
52188;SDS011;38162;45.926;13.608;2022-12-07T09:45:56;4.57;;;2.13;;
52188;SDS011;38162;45.926;13.608;2022-12-07T09:48:35;6.80;;;1.80;;
52188;SDS011;38162;45.926;13.608;2022-12-07T09:51:12;6.87;;;2.23;;
52188;SDS011;38162;45.926;13.608;2022-12-07T09:53:49;3.00;;;2.07;;
52188;SDS011;38162;45.926;13.608;2022-12-07T09:56:16;2.40;;;1.87;;
52188;SDS011;38162;45.926;13.608;2022-12-07T09:58:43;6.30;;;1.90;;
52188;SDS011;38162;45.926;13.608;2022-12-07T10:01:15;2.47;;;1.97;;
52188;SDS011;38162;45.926;13.608;2022-12-07T10:06:15;4.73;;;2.13;;
52188;SDS011;38162;45.926;13.608;2022-12-07T10:08:41;2.73;;;2.00;;
52188;SDS011;38162;45.926;13.608;2022-12-07T10:11:08;2.70;;;1.90;;
52188;SDS011;38162;45.926;13.608;2022-12-07T10:13:48;2.67;;;2.20;;
52188;SDS011;38162;45.926;13.608;2022-12-07T10:18:53;3.13;;;2.00;;
52188;SDS011;38162;45.926;13.608;2022-12-07T10:21:20;2.73;;;1.80;;
52188;SDS011;38162;45.926;13.608;2022-12-07T10:26:37;5.30;;;2.00;;
52188;SDS011;38162;45.926;13.608;2022-12-07T10:29:18;5.10;;;1.90;;
52188;SDS011;38162;45.926;13.608;2022-12-07T10:32:05;3.38;;;1.95;;
52188;SDS011;38162;45.926;13.608;2022-12-07T10:34:51;4.28;;;2.00;;
52188;SDS011;38162;45.926;13.608;2022-12-07T10:37:40;2.93;;;1.70;;
52188;SDS011;38162;45.926;13.608;2022-12-07T10:40:23;5.05;;;2.03;;
52188;SDS011;38162;45.926;13.608;2022-12-07T10:43:02;2.58;;;2.03;;
52188;SDS011;38162;45.926;13.608;2022-12-07T10:45:28;3.78;;;1.92;;
52188;SDS011;38162;45.926;13.608;2022-12-07T10:48:13;3.23;;;2.10;;
52188;SDS011;38162;45.926;13.608;2022-12-07T10:50:56;2.93;;;1.70;;
52188;SDS011;38162;45.926;13.608;2022-12-07T11:01:45;2.78;;;1.80;;
52188;SDS011;38162;45.926;13.608;2022-12-07T11:04:54;3.00;;;1.90;;
52188;SDS011;38162;45.926;13.608;2022-12-07T11:10:26;2.77;;;1.80;;
52188;SDS011;38162;45.926;13.608;2022-12-07T11:18:22;2.83;;;1.80;;
52188;SDS011;38162;45.926;13.608;2022-12-07T11:21:00;4.00;;;1.90;;
52188;SDS011;38162;45.926;13.608;2022-12-07T11:37:38;3.10;;;1.50;;
52188;SDS011;38162;45.926;13.608;2022-12-07T11:42:42;2.67;;;1.80;;
52188;SDS011;38162;45.926;13.608;2022-12-07T11:45:19;3.47;;;2.17;;
52188;SDS011;38162;45.926;13.608;2022-12-07T11:47:55;3.67;;;1.58;;
52188;SDS011;38162;45.926;13.608;2022-12-07T11:50:41;2.30;;;1.73;;
52188;SDS011;38162;45.926;13.608;2022-12-07T11:53:14;2.22;;;1.50;;
52188;SDS011;38162;45.926;13.608;2022-12-07T11:55:48;2.53;;;1.58;;
52188;SDS011;38162;45.926;13.608;2022-12-07T12:03:46;2.30;;;1.67;;
52188;SDS011;38162;45.926;13.608;2022-12-07T12:06:14;3.83;;;2.05;;
52188;SDS011;38162;45.926;13.608;2022-12-07T12:26:01;5.97;;;1.33;;
52188;SDS011;38162;45.926;13.608;2022-12-07T12:28:32;2.22;;;1.50;;
52188;SDS011;38162;45.926;13.608;2022-12-07T12:31:14;3.08;;;1.50;;
52188;SDS011;38162;45.926;13.608;2022-12-07T12:33:50;4.05;;;1.58;;
52188;SDS011;38162;45.926;13.608;2022-12-07T12:49:39;2.00;;;1.20;;
52188;SDS011;38162;45.926;13.608;2022-12-07T12:52:46;5.90;;;1.15;;
52188;SDS011;38162;45.926;13.608;2022-12-07T12:57:35;2.30;;;1.55;;
52188;SDS011;38162;45.926;13.608;2022-12-07T13:00:18;3.55;;;1.25;;
52188;SDS011;38162;45.926;13.608;2022-12-07T13:02:49;2.03;;;1.27;;
52188;SDS011;38162;45.926;13.608;2022-12-07T13:05:19;1.95;;;1.30;;
52188;SDS011;38162;45.926;13.608;2022-12-07T13:15:44;1.50;;;1.20;;
52188;SDS011;38162;45.926;13.608;2022-12-07T13:28:51;3.22;;;1.23;;
52188;SDS011;38162;45.926;13.608;2022-12-07T13:33:55;1.58;;;1.17;;
52188;SDS011;38162;45.926;13.608;2022-12-07T13:36:22;3.53;;;1.20;;
52188;SDS011;38162;45.926;13.608;2022-12-07T13:38:51;2.13;;;1.20;;
52188;SDS011;38162;45.926;13.608;2022-12-07T13:41:18;1.20;;;0.95;;
52188;SDS011;38162;45.926;13.608;2022-12-07T13:46:14;1.65;;;1.17;;
52188;SDS011;38162;45.926;13.608;2022-12-07T13:48:44;2.55;;;1.33;;
52188;SDS011;38162;45.926;13.608;2022-12-07T13:51:19;3.90;;;1.40;;
52188;SDS011;38162;45.926;13.608;2022-12-07T13:53:49;2.40;;;1.15;;
52188;SDS011;38162;45.926;13.608;2022-12-07T13:56:17;2.22;;;1.25;;
52188;SDS011;38162;45.926;13.608;2022-12-07T13:58:43;2.08;;;1.10;;
52188;SDS011;38162;45.926;13.608;2022-12-07T14:01:09;3.15;;;1.20;;
52188;SDS011;38162;45.926;13.608;2022-12-07T14:03:35;2.70;;;1.37;;
52188;SDS011;38162;45.926;13.608;2022-12-07T14:06:15;1.70;;;1.00;;
52188;SDS011;38162;45.926;13.608;2022-12-07T14:08:43;3.58;;;1.60;;
52188;SDS011;38162;45.926;13.608;2022-12-07T14:11:16;3.08;;;1.25;;
52188;SDS011;38162;45.926;13.608;2022-12-07T14:13:45;2.95;;;1.25;;
52188;SDS011;38162;45.926;13.608;2022-12-07T14:16:26;2.25;;;1.13;;
52188;SDS011;38162;45.926;13.608;2022-12-07T14:18:57;1.40;;;1.00;;
52188;SDS011;38162;45.926;13.608;2022-12-07T14:21:25;1.83;;;1.20;;
52188;SDS011;38162;45.926;13.608;2022-12-07T14:26:45;1.90;;;1.23;;
52188;SDS011;38162;45.926;13.608;2022-12-07T14:32:26;6.07;;;1.25;;
52188;SDS011;38162;45.926;13.608;2022-12-07T14:34:55;2.63;;;1.40;;
52188;SDS011;38162;45.926;13.608;2022-12-07T14:37:22;3.05;;;1.15;;
52188;SDS011;38162;45.926;13.608;2022-12-07T14:39:48;4.82;;;1.35;;
52188;SDS011;38162;45.926;13.608;2022-12-07T14:42:13;2.40;;;1.33;;
52188;SDS011;38162;45.926;13.608;2022-12-07T14:44:39;2.97;;;1.60;;
52188;SDS011;38162;45.926;13.608;2022-12-07T14:47:08;8.32;;;1.60;;
52188;SDS011;38162;45.926;13.608;2022-12-07T14:49:35;5.72;;;1.40;;
52188;SDS011;38162;45.926;13.608;2022-12-07T14:52:01;2.60;;;1.33;;
52188;SDS011;38162;45.926;13.608;2022-12-07T14:54:27;2.30;;;1.40;;
52188;SDS011;38162;45.926;13.608;2022-12-07T14:56:57;4.10;;;1.52;;
52188;SDS011;38162;45.926;13.608;2022-12-07T14:59:22;2.10;;;1.43;;
52188;SDS011;38162;45.926;13.608;2022-12-07T15:01:48;2.63;;;1.60;;
52188;SDS011;38162;45.926;13.608;2022-12-07T15:04:14;2.53;;;1.60;;
52188;SDS011;38162;45.926;13.608;2022-12-07T15:06:40;2.60;;;1.80;;
52188;SDS011;38162;45.926;13.608;2022-12-07T15:09:08;2.97;;;1.80;;
52188;SDS011;38162;45.926;13.608;2022-12-07T15:11:36;2.80;;;1.65;;
52188;SDS011;38162;45.926;13.608;2022-12-07T15:14:02;4.90;;;2.90;;
52188;SDS011;38162;45.926;13.608;2022-12-07T15:16:34;4.20;;;2.50;;
52188;SDS011;38162;45.926;13.608;2022-12-07T15:19:01;3.50;;;2.37;;
52188;SDS011;38162;45.926;13.608;2022-12-07T15:21:27;4.77;;;2.17;;
52188;SDS011;38162;45.926;13.608;2022-12-07T15:23:53;6.33;;;2.90;;
52188;SDS011;38162;45.926;13.608;2022-12-07T15:26:19;5.40;;;2.77;;
52188;SDS011;38162;45.926;13.608;2022-12-07T15:28:45;3.78;;;1.98;;
52188;SDS011;38162;45.926;13.608;2022-12-07T15:31:14;4.15;;;2.17;;
52188;SDS011;38162;45.926;13.608;2022-12-07T15:33:41;4.37;;;2.67;;
52188;SDS011;38162;45.926;13.608;2022-12-07T15:36:07;3.03;;;2.00;;
52188;SDS011;38162;45.926;13.608;2022-12-07T15:38:35;3.60;;;2.50;;
52188;SDS011;38162;45.926;13.608;2022-12-07T15:41:00;4.03;;;2.40;;
52188;SDS011;38162;45.926;13.608;2022-12-07T15:43:26;3.33;;;2.20;;
52188;SDS011;38162;45.926;13.608;2022-12-07T15:46:30;8.43;;;3.80;;
52188;SDS011;38162;45.926;13.608;2022-12-07T15:48:57;5.28;;;3.00;;
52188;SDS011;38162;45.926;13.608;2022-12-07T15:51:23;5.37;;;3.53;;
52188;SDS011;38162;45.926;13.608;2022-12-07T15:53:49;4.80;;;3.17;;
52188;SDS011;38162;45.926;13.608;2022-12-07T15:56:14;5.68;;;3.38;;
52188;SDS011;38162;45.926;13.608;2022-12-07T15:58:40;4.30;;;2.80;;
52188;SDS011;38162;45.926;13.608;2022-12-07T16:01:09;4.10;;;2.60;;
52188;SDS011;38162;45.926;13.608;2022-12-07T16:03:36;3.17;;;2.40;;
52188;SDS011;38162;45.926;13.608;2022-12-07T16:06:02;5.33;;;2.30;;
52188;SDS011;38162;45.926;13.608;2022-12-07T16:08:28;4.80;;;3.63;;
52188;SDS011;38162;45.926;13.608;2022-12-07T16:10:53;8.33;;;3.40;;
52188;SDS011;38162;45.926;13.608;2022-12-07T16:13:19;5.43;;;4.07;;
52188;SDS011;38162;45.926;13.608;2022-12-07T16:15:45;4.40;;;3.30;;
52188;SDS011;38162;45.926;13.608;2022-12-07T16:18:11;7.97;;;3.80;;
52188;SDS011;38162;45.926;13.608;2022-12-07T16:20:37;4.63;;;2.83;;
52188;SDS011;38162;45.926;13.608;2022-12-07T16:23:03;5.83;;;3.53;;
52188;SDS011;38162;45.926;13.608;2022-12-07T16:25:29;5.65;;;3.08;;
52188;SDS011;38162;45.926;13.608;2022-12-07T16:27:54;6.77;;;3.10;;
52188;SDS011;38162;45.926;13.608;2022-12-07T16:30:20;6.17;;;3.10;;
52188;SDS011;38162;45.926;13.608;2022-12-07T16:32:46;4.23;;;3.00;;
52188;SDS011;38162;45.926;13.608;2022-12-07T16:35:12;6.37;;;3.33;;
52188;SDS011;38162;45.926;13.608;2022-12-07T16:37:38;6.33;;;4.03;;
52188;SDS011;38162;45.926;13.608;2022-12-07T16:40:06;6.80;;;3.80;;
52188;SDS011;38162;45.926;13.608;2022-12-07T16:42:33;7.03;;;4.13;;
52188;SDS011;38162;45.926;13.608;2022-12-07T16:44:59;8.57;;;5.10;;
52188;SDS011;38162;45.926;13.608;2022-12-07T16:47:26;6.90;;;4.73;;
52188;SDS011;38162;45.926;13.608;2022-12-07T16:49:51;7.23;;;4.60;;
52188;SDS011;38162;45.926;13.608;2022-12-07T16:52:20;7.03;;;4.40;;
52188;SDS011;38162;45.926;13.608;2022-12-07T16:54:49;6.50;;;4.70;;
52188;SDS011;38162;45.926;13.608;2022-12-07T16:57:15;7.50;;;4.90;;
52188;SDS011;38162;45.926;13.608;2022-12-07T16:59:41;9.87;;;5.07;;
52188;SDS011;38162;45.926;13.608;2022-12-07T17:02:09;7.93;;;4.77;;
52188;SDS011;38162;45.926;13.608;2022-12-07T17:04:36;6.73;;;4.50;;
52188;SDS011;38162;45.926;13.608;2022-12-07T17:07:04;5.80;;;3.90;;